2011年11月25日 星期五

An-124大駕光臨RCTP

話說,昨天(2011.11.25.)這一架An-124搭載三架海鷗的新直昇機到RCKU去,所以有了一趟臺灣之行。日昨本來的計畫表訂是1030到RCKU,卸貨完後1330離場前往桃園,然後1430桃園到。不過聽說到嘉義的時間已經延誤,到約1250才到,因此整個後續都慢了。儘管如此,An-124這架大貨機還是到桃園過夜,原本今天早上是0700要走,但昨晚的消息是改到0900,於是在考量到0900的時間比六早七早的要好很多,因此出草團決定出發來去逮這架飛機。

那麼,要到哪兒拍呢?現在RCTP只有一條跑道,所以所有飛機都擠在連絡道這邊。儘管水門上不去,現在鐵絲網一大堆,但是好像也只有連絡道可以拍。所以只好如此如此這般這般地到現場,等等等。


其實這個點還不錯啦,你可以看它一路從一航滑到二航,然後一直通過往跑道頭去。


今天這隻很有趣,在連絡道前停下來,讓大家拍個過癮。


轉身一下,有看到鼻輪嗎?兩個耶!

這邊輪子被「埋」起來了。

跟怪手合影一下!

一陣歡呼聲中,來了來了,衝啊~



有一點起來囉~


然後,你知道為何接著沒拍了?下圖就是答案。這位阿伯,根本就是今天搶鏡頭第一名!他完全不管後面一堆人哀嚎,飛機滑過來時故意在大家面前走來晃去當男主角,現場哀嚎聲一片......

然後還呼朋引伴,一連三位保全在大家鏡頭前面!彷彿告訴你,你們只能在外面蹲,我們在裡面拍很容易啊!

因為阿伯的關係,只好拉起來再拍了~唉

連絡道現在有鐵絲網,不注意就會拍成這樣,除非帶梯子去。

最後補一張三八照。

METAR RCTP 252230Z 09010KT 060V130 9999 FEW020 BKN060 21/14 Q1019 NOSIG RMK A3010

TAF RCTP 251700Z 2518/2624 08010KT 9999 FEW020 BKN100
BECMG 2600/2602 06016G26KT
BECMG 2612/2614 07011KT
TEMPO 2614/2624 FEW008 BKN012 BKN030=
TAF COR RCKH 251700Z 2518/2624 07004KT 7000 FEW022 BKN070
TEMPO 2518/2602 3500 HZ
BECMG 2602/2604 29009KT
TEMPO 2616/2624 01003KT 2500 BR FEW015 BKN035=

4 意見:

H君 2011年11月26日 上午12:21  

http://news.chinatimes.com/politics/11050201/132011112500891.html

H君 2011年11月26日 上午12:23  

俄製AN-124型安托諾夫貨機在25日中午抵達嘉義,這架巨大飛機長75公尺,兩翼伸展近80公尺,機身高21公尺、約7層樓高,也是全場注目的焦點。空軍耗費4個多小時,將編號2251、2252及2253三架EC-225型救護機與相關組件,從貨機機身內一一運出,轉往基地棚廠準備組裝。

原文網址: 超級美洲獅EC-225救護機抵嘉義 巨型俄AN-124貨機也吸睛 (第1頁/共2頁)| 政治新聞 | NOWnews 今日新聞網 http://www.nownews.com/2011/11/25/301-2761147.htm#ixzz1enWgnhGk

北投埔 2011年11月27日 下午11:56  

為什麼今年有這麼大飛機飛來台灣, 這樣的肢體語言是告訴我們什麼事正在發生???我們要如何去理解這大飛機對台灣的重要性???

et29912002 2011年12月4日 上午6:51  

好難得有俄羅斯(烏克蘭?)的飛機光臨台灣

一開始我以為An124就是電影2012裡面載著主角們飛到中國的那一架俄羅斯貨機

回家再看了2012的DVD,發現尾翼完全不一樣,原來電影裡面那架是ANTONOV 500

上網一查.....有趣的來了

實際上並沒有antonov 500這種型號,現實生活中應該是ANTONOV 225才對,而且它是全世界載運量最大的貨機,電影裡的500型是虛構的,雖然外型看起來一樣,但是ANTONOV225的貨艙是由機頭開口,電影裡的貨艙確是從尾巴開口

更有趣的是,電影裡的俄羅斯大亨自豪的說:it is made by russia,讓外國網友在youtube上為了ANTONOV是俄羅斯製還是烏克蘭製爭半天

看來主權爭議的問題,各色人種都很堅持@@

  © Blogger template 'A Click Apart' by Ourblogtemplates.com 2008

Back to TOP